sensor_id;sensor_type;location;lat;lon;timestamp;P1;durP1;ratioP1;P2;durP2;ratioP2
4268;SDS011;2148;48.554;7.834;2022-08-01T00:00:09;2.83;;;2.63;;
4268;SDS011;2148;48.554;7.834;2022-08-01T00:02:36;2.90;;;2.70;;
4268;SDS011;2148;48.554;7.834;2022-08-01T00:05:02;2.87;;;2.67;;
4268;SDS011;2148;48.554;7.834;2022-08-01T00:07:30;3.47;;;2.85;;
4268;SDS011;2148;48.554;7.834;2022-08-01T00:09:56;3.30;;;3.00;;
4268;SDS011;2148;48.554;7.834;2022-08-01T00:12:21;3.50;;;3.20;;
4268;SDS011;2148;48.554;7.834;2022-08-01T00:14:46;3.00;;;2.70;;
4268;SDS011;2148;48.554;7.834;2022-08-01T00:17:11;3.13;;;2.87;;
4268;SDS011;2148;48.554;7.834;2022-08-01T00:19:36;3.00;;;2.80;;
4268;SDS011;2148;48.554;7.834;2022-08-01T00:22:02;3.83;;;2.88;;
4268;SDS011;2148;48.554;7.834;2022-08-01T00:24:27;3.10;;;2.90;;
4268;SDS011;2148;48.554;7.834;2022-08-01T00:26:53;3.07;;;2.87;;
4268;SDS011;2148;48.554;7.834;2022-08-01T00:29:18;4.70;;;3.17;;
4268;SDS011;2148;48.554;7.834;2022-08-01T00:31:43;3.00;;;2.70;;
4268;SDS011;2148;48.554;7.834;2022-08-01T00:34:08;3.13;;;2.67;;
4268;SDS011;2148;48.554;7.834;2022-08-01T00:36:34;2.80;;;2.60;;
4268;SDS011;2148;48.554;7.834;2022-08-01T00:38:59;3.30;;;3.00;;
4268;SDS011;2148;48.554;7.834;2022-08-01T00:41:24;3.20;;;2.90;;
4268;SDS011;2148;48.554;7.834;2022-08-01T00:43:49;4.10;;;2.83;;
4268;SDS011;2148;48.554;7.834;2022-08-01T00:46:15;4.10;;;3.38;;
4268;SDS011;2148;48.554;7.834;2022-08-01T00:48:40;3.87;;;2.90;;
4268;SDS011;2148;48.554;7.834;2022-08-01T00:51:05;3.03;;;2.83;;
4268;SDS011;2148;48.554;7.834;2022-08-01T00:53:32;2.80;;;2.60;;
4268;SDS011;2148;48.554;7.834;2022-08-01T00:55:57;3.30;;;3.00;;
4268;SDS011;2148;48.554;7.834;2022-08-01T00:58:22;3.40;;;2.80;;
4268;SDS011;2148;48.554;7.834;2022-08-01T01:00:48;3.17;;;2.90;;
4268;SDS011;2148;48.554;7.834;2022-08-01T01:03:13;3.67;;;3.17;;
4268;SDS011;2148;48.554;7.834;2022-08-01T01:06:12;3.20;;;2.90;;
4268;SDS011;2148;48.554;7.834;2022-08-01T01:08:42;4.30;;;3.00;;
4268;SDS011;2148;48.554;7.834;2022-08-01T01:11:11;3.20;;;2.90;;
4268;SDS011;2148;48.554;7.834;2022-08-01T01:13:46;3.50;;;2.70;;
4268;SDS011;2148;48.554;7.834;2022-08-01T01:16:15;5.00;;;2.77;;
4268;SDS011;2148;48.554;7.834;2022-08-01T01:18:44;2.90;;;2.70;;
4268;SDS011;2148;48.554;7.834;2022-08-01T01:23:50;3.07;;;2.83;;
4268;SDS011;2148;48.554;7.834;2022-08-01T01:29:40;2.63;;;2.43;;
4268;SDS011;2148;48.554;7.834;2022-08-01T01:32:12;5.23;;;3.17;;
4268;SDS011;2148;48.554;7.834;2022-08-01T01:34:42;3.17;;;2.70;;
4268;SDS011;2148;48.554;7.834;2022-08-01T01:37:09;3.03;;;2.70;;
4268;SDS011;2148;48.554;7.834;2022-08-01T01:39:37;3.67;;;3.00;;
4268;SDS011;2148;48.554;7.834;2022-08-01T01:42:04;3.30;;;3.00;;
4268;SDS011;2148;48.554;7.834;2022-08-01T01:44:31;3.20;;;2.67;;
4268;SDS011;2148;48.554;7.834;2022-08-01T01:46:57;3.47;;;2.93;;
4268;SDS011;2148;48.554;7.834;2022-08-01T01:49:24;3.10;;;2.80;;
4268;SDS011;2148;48.554;7.834;2022-08-01T01:51:51;3.57;;;3.27;;
4268;SDS011;2148;48.554;7.834;2022-08-01T01:54:18;3.80;;;2.93;;
4268;SDS011;2148;48.554;7.834;2022-08-01T01:56:44;3.07;;;2.80;;
4268;SDS011;2148;48.554;7.834;2022-08-01T01:59:13;3.13;;;2.83;;
4268;SDS011;2148;48.554;7.834;2022-08-01T02:01:41;3.63;;;2.80;;
4268;SDS011;2148;48.554;7.834;2022-08-01T02:04:07;3.20;;;2.70;;
4268;SDS011;2148;48.554;7.834;2022-08-01T02:06:32;3.30;;;3.00;;
4268;SDS011;2148;48.554;7.834;2022-08-01T02:08:58;3.20;;;2.97;;
4268;SDS011;2148;48.554;7.834;2022-08-01T02:11:24;3.30;;;3.00;;
4268;SDS011;2148;48.554;7.834;2022-08-01T02:13:53;4.20;;;3.10;;
4268;SDS011;2148;48.554;7.834;2022-08-01T02:16:24;3.40;;;3.10;;
4268;SDS011;2148;48.554;7.834;2022-08-01T02:18:50;3.80;;;2.90;;
4268;SDS011;2148;48.554;7.834;2022-08-01T02:21:16;3.40;;;3.10;;
4268;SDS011;2148;48.554;7.834;2022-08-01T02:23:52;3.23;;;2.93;;
4268;SDS011;2148;48.554;7.834;2022-08-01T02:26:18;2.90;;;2.70;;
4268;SDS011;2148;48.554;7.834;2022-08-01T02:28:49;3.90;;;3.00;;
4268;SDS011;2148;48.554;7.834;2022-08-01T02:31:17;3.27;;;2.97;;
4268;SDS011;2148;48.554;7.834;2022-08-01T02:33:44;3.07;;;2.87;;
4268;SDS011;2148;48.554;7.834;2022-08-01T02:36:12;4.00;;;3.03;;
4268;SDS011;2148;48.554;7.834;2022-08-01T02:38:40;3.93;;;3.03;;
4268;SDS011;2148;48.554;7.834;2022-08-01T02:41:08;3.17;;;2.87;;
4268;SDS011;2148;48.554;7.834;2022-08-01T02:43:36;3.50;;;3.20;;
4268;SDS011;2148;48.554;7.834;2022-08-01T02:46:02;3.07;;;2.60;;
4268;SDS011;2148;48.554;7.834;2022-08-01T02:48:29;4.73;;;2.53;;
4268;SDS011;2148;48.554;7.834;2022-08-01T02:50:56;3.73;;;3.23;;
4268;SDS011;2148;48.554;7.834;2022-08-01T02:53:24;4.00;;;3.10;;
4268;SDS011;2148;48.554;7.834;2022-08-01T02:55:50;3.57;;;3.20;;
4268;SDS011;2148;48.554;7.834;2022-08-01T02:58:16;5.30;;;3.57;;
4268;SDS011;2148;48.554;7.834;2022-08-01T03:00:44;4.80;;;3.33;;
4268;SDS011;2148;48.554;7.834;2022-08-01T03:03:10;3.50;;;3.17;;
4268;SDS011;2148;48.554;7.834;2022-08-01T03:05:36;3.97;;;3.57;;
4268;SDS011;2148;48.554;7.834;2022-08-01T03:08:04;4.47;;;3.63;;
4268;SDS011;2148;48.554;7.834;2022-08-01T03:10:31;3.70;;;3.40;;
4268;SDS011;2148;48.554;7.834;2022-08-01T03:12:57;4.40;;;3.10;;
4268;SDS011;2148;48.554;7.834;2022-08-01T03:15:24;3.67;;;3.30;;
4268;SDS011;2148;48.554;7.834;2022-08-01T03:17:52;3.60;;;3.30;;
4268;SDS011;2148;48.554;7.834;2022-08-01T03:20:18;6.93;;;3.60;;
4268;SDS011;2148;48.554;7.834;2022-08-01T03:22:45;3.50;;;3.20;;
4268;SDS011;2148;48.554;7.834;2022-08-01T03:25:11;3.50;;;3.00;;
4268;SDS011;2148;48.554;7.834;2022-08-01T03:27:37;5.60;;;3.23;;
4268;SDS011;2148;48.554;7.834;2022-08-01T03:30:05;3.73;;;3.37;;
4268;SDS011;2148;48.554;7.834;2022-08-01T03:32:31;5.50;;;3.30;;
4268;SDS011;2148;48.554;7.834;2022-08-01T03:34:56;5.47;;;3.40;;
4268;SDS011;2148;48.554;7.834;2022-08-01T03:37:26;3.47;;;2.90;;
4268;SDS011;2148;48.554;7.834;2022-08-01T03:39:57;2.80;;;2.60;;
4268;SDS011;2148;48.554;7.834;2022-08-01T03:42:33;3.33;;;3.00;;
4268;SDS011;2148;48.554;7.834;2022-08-01T03:45:10;3.60;;;3.00;;
4268;SDS011;2148;48.554;7.834;2022-08-01T03:47:47;4.57;;;3.20;;
4268;SDS011;2148;48.554;7.834;2022-08-01T03:50:14;4.97;;;3.20;;
4268;SDS011;2148;48.554;7.834;2022-08-01T03:52:41;4.20;;;3.20;;
4268;SDS011;2148;48.554;7.834;2022-08-01T03:55:09;3.13;;;2.90;;
4268;SDS011;2148;48.554;7.834;2022-08-01T03:57:35;3.30;;;3.00;;
4268;SDS011;2148;48.554;7.834;2022-08-01T04:00:00;3.97;;;2.93;;
4268;SDS011;2148;48.554;7.834;2022-08-01T04:02:26;3.30;;;3.00;;
4268;SDS011;2148;48.554;7.834;2022-08-01T04:04:52;5.77;;;3.50;;
4268;SDS011;2148;48.554;7.834;2022-08-01T04:07:22;6.27;;;3.40;;
4268;SDS011;2148;48.554;7.834;2022-08-01T04:09:47;3.50;;;3.10;;
4268;SDS011;2148;48.554;7.834;2022-08-01T04:12:13;3.70;;;3.40;;
4268;SDS011;2148;48.554;7.834;2022-08-01T04:14:38;3.07;;;2.87;;
4268;SDS011;2148;48.554;7.834;2022-08-01T04:17:03;3.43;;;3.13;;
4268;SDS011;2148;48.554;7.834;2022-08-01T04:19:29;3.10;;;2.80;;
4268;SDS011;2148;48.554;7.834;2022-08-01T04:21:54;3.67;;;3.37;;
4268;SDS011;2148;48.554;7.834;2022-08-01T04:24:20;3.67;;;3.10;;
4268;SDS011;2148;48.554;7.834;2022-08-01T04:26:46;4.83;;;3.13;;
4268;SDS011;2148;48.554;7.834;2022-08-01T04:29:12;3.30;;;3.00;;
4268;SDS011;2148;48.554;7.834;2022-08-01T04:31:41;3.40;;;3.10;;
4268;SDS011;2148;48.554;7.834;2022-08-01T04:34:07;3.40;;;3.10;;
4268;SDS011;2148;48.554;7.834;2022-08-01T04:36:35;3.80;;;3.50;;
4268;SDS011;2148;48.554;7.834;2022-08-01T04:39:01;3.30;;;3.10;;
4268;SDS011;2148;48.554;7.834;2022-08-01T04:41:27;3.50;;;3.20;;
4268;SDS011;2148;48.554;7.834;2022-08-01T04:43:53;5.60;;;3.50;;
4268;SDS011;2148;48.554;7.834;2022-08-01T04:46:20;3.90;;;3.60;;
4268;SDS011;2148;48.554;7.834;2022-08-01T04:48:45;3.77;;;3.20;;
4268;SDS011;2148;48.554;7.834;2022-08-01T04:51:11;4.03;;;3.20;;
4268;SDS011;2148;48.554;7.834;2022-08-01T04:53:41;4.90;;;3.50;;
4268;SDS011;2148;48.554;7.834;2022-08-01T04:56:07;3.57;;;3.27;;
4268;SDS011;2148;48.554;7.834;2022-08-01T04:58:32;4.50;;;3.63;;
4268;SDS011;2148;48.554;7.834;2022-08-01T05:00:57;3.93;;;3.57;;
4268;SDS011;2148;48.554;7.834;2022-08-01T05:03:22;4.90;;;3.47;;
4268;SDS011;2148;48.554;7.834;2022-08-01T05:05:48;7.63;;;3.57;;
4268;SDS011;2148;48.554;7.834;2022-08-01T05:08:13;4.07;;;3.53;;
4268;SDS011;2148;48.554;7.834;2022-08-01T05:10:38;3.80;;;3.50;;
4268;SDS011;2148;48.554;7.834;2022-08-01T05:13:03;3.70;;;3.30;;
4268;SDS011;2148;48.554;7.834;2022-08-01T05:15:29;4.07;;;3.73;;
4268;SDS011;2148;48.554;7.834;2022-08-01T05:17:54;7.00;;;3.50;;
4268;SDS011;2148;48.554;7.834;2022-08-01T05:20:19;4.47;;;3.33;;
4268;SDS011;2148;48.554;7.834;2022-08-01T05:22:44;4.63;;;3.83;;
4268;SDS011;2148;48.554;7.834;2022-08-01T05:25:10;3.60;;;3.30;;
4268;SDS011;2148;48.554;7.834;2022-08-01T05:27:35;4.13;;;3.27;;
4268;SDS011;2148;48.554;7.834;2022-08-01T05:30:05;4.93;;;3.53;;
4268;SDS011;2148;48.554;7.834;2022-08-01T05:32:33;3.80;;;3.20;;
4268;SDS011;2148;48.554;7.834;2022-08-01T05:34:59;3.23;;;2.93;;
4268;SDS011;2148;48.554;7.834;2022-08-01T05:37:24;3.37;;;3.07;;
4268;SDS011;2148;48.554;7.834;2022-08-01T05:39:50;3.50;;;3.20;;
4268;SDS011;2148;48.554;7.834;2022-08-01T05:42:15;4.33;;;3.30;;
4268;SDS011;2148;48.554;7.834;2022-08-01T05:44:40;3.43;;;3.13;;
4268;SDS011;2148;48.554;7.834;2022-08-01T05:47:06;5.47;;;3.60;;
4268;SDS011;2148;48.554;7.834;2022-08-01T05:49:31;4.03;;;3.50;;
4268;SDS011;2148;48.554;7.834;2022-08-01T05:51:56;4.10;;;3.50;;
4268;SDS011;2148;48.554;7.834;2022-08-01T05:54:21;6.17;;;4.10;;
4268;SDS011;2148;48.554;7.834;2022-08-01T05:56:47;14.70;;;4.80;;
4268;SDS011;2148;48.554;7.834;2022-08-01T05:59:12;6.60;;;4.43;;
4268;SDS011;2148;48.554;7.834;2022-08-01T06:01:37;5.87;;;3.57;;
4268;SDS011;2148;48.554;7.834;2022-08-01T06:04:02;9.10;;;4.20;;
4268;SDS011;2148;48.554;7.834;2022-08-01T06:06:28;8.03;;;4.63;;
4268;SDS011;2148;48.554;7.834;2022-08-01T06:08:53;10.97;;;4.67;;
4268;SDS011;2148;48.554;7.834;2022-08-01T06:11:18;8.43;;;4.47;;
4268;SDS011;2148;48.554;7.834;2022-08-01T06:13:44;5.93;;;4.20;;
4268;SDS011;2148;48.554;7.834;2022-08-01T06:16:09;8.93;;;4.60;;
4268;SDS011;2148;48.554;7.834;2022-08-01T06:18:34;9.07;;;4.00;;
4268;SDS011;2148;48.554;7.834;2022-08-01T06:20:59;5.43;;;3.77;;
4268;SDS011;2148;48.554;7.834;2022-08-01T06:23:25;6.57;;;4.13;;
4268;SDS011;2148;48.554;7.834;2022-08-01T06:25:53;7.87;;;3.80;;
4268;SDS011;2148;48.554;7.834;2022-08-01T06:28:22;5.43;;;4.23;;
4268;SDS011;2148;48.554;7.834;2022-08-01T06:30:48;5.17;;;3.90;;
4268;SDS011;2148;48.554;7.834;2022-08-01T06:33:13;6.43;;;3.93;;
4268;SDS011;2148;48.554;7.834;2022-08-01T06:35:38;5.23;;;3.60;;
4268;SDS011;2148;48.554;7.834;2022-08-01T06:38:03;5.27;;;3.80;;
4268;SDS011;2148;48.554;7.834;2022-08-01T06:40:29;4.20;;;3.80;;
4268;SDS011;2148;48.554;7.834;2022-08-01T06:42:54;4.10;;;3.80;;
4268;SDS011;2148;48.554;7.834;2022-08-01T06:45:19;4.03;;;3.63;;
4268;SDS011;2148;48.554;7.834;2022-08-01T06:47:47;5.93;;;4.00;;
4268;SDS011;2148;48.554;7.834;2022-08-01T06:50:12;4.10;;;3.70;;
4268;SDS011;2148;48.554;7.834;2022-08-01T06:52:39;4.93;;;3.40;;
4268;SDS011;2148;48.554;7.834;2022-08-01T06:55:05;4.17;;;3.77;;
4268;SDS011;2148;48.554;7.834;2022-08-01T06:57:31;5.17;;;3.90;;
4268;SDS011;2148;48.554;7.834;2022-08-01T06:59:57;5.80;;;3.87;;
4268;SDS011;2148;48.554;7.834;2022-08-01T07:02:31;5.63;;;4.17;;
4268;SDS011;2148;48.554;7.834;2022-08-01T07:04:56;4.40;;;3.53;;
4268;SDS011;2148;48.554;7.834;2022-08-01T07:07:25;4.50;;;4.10;;
4268;SDS011;2148;48.554;7.834;2022-08-01T07:09:50;3.63;;;3.33;;
4268;SDS011;2148;48.554;7.834;2022-08-01T07:12:15;4.53;;;3.77;;
4268;SDS011;2148;48.554;7.834;2022-08-01T07:14:40;5.03;;;3.80;;
4268;SDS011;2148;48.554;7.834;2022-08-01T07:17:05;4.60;;;4.20;;
4268;SDS011;2148;48.554;7.834;2022-08-01T07:19:31;5.53;;;3.83;;
4268;SDS011;2148;48.554;7.834;2022-08-01T07:21:56;5.10;;;3.40;;
4268;SDS011;2148;48.554;7.834;2022-08-01T07:24:21;5.20;;;3.67;;
4268;SDS011;2148;48.554;7.834;2022-08-01T07:26:47;4.30;;;3.90;;
4268;SDS011;2148;48.554;7.834;2022-08-01T07:29:13;7.40;;;4.07;;
4268;SDS011;2148;48.554;7.834;2022-08-01T07:31:39;5.70;;;3.77;;
4268;SDS011;2148;48.554;7.834;2022-08-01T07:34:04;4.50;;;3.77;;
4268;SDS011;2148;48.554;7.834;2022-08-01T07:36:29;4.57;;;3.67;;
4268;SDS011;2148;48.554;7.834;2022-08-01T07:38:55;5.40;;;3.47;;
4268;SDS011;2148;48.554;7.834;2022-08-01T07:41:20;4.30;;;3.80;;
4268;SDS011;2148;48.554;7.834;2022-08-01T07:43:45;6.87;;;4.10;;
4268;SDS011;2148;48.554;7.834;2022-08-01T07:46:12;4.10;;;3.60;;
4268;SDS011;2148;48.554;7.834;2022-08-01T07:48:37;6.00;;;3.57;;
4268;SDS011;2148;48.554;7.834;2022-08-01T07:51:02;4.20;;;3.53;;
4268;SDS011;2148;48.554;7.834;2022-08-01T07:53:28;4.53;;;3.97;;
4268;SDS011;2148;48.554;7.834;2022-08-01T07:55:54;5.93;;;3.90;;
4268;SDS011;2148;48.554;7.834;2022-08-01T07:58:19;5.63;;;3.97;;
4268;SDS011;2148;48.554;7.834;2022-08-01T08:00:44;5.77;;;3.60;;
4268;SDS011;2148;48.554;7.834;2022-08-01T08:03:09;4.20;;;3.80;;
4268;SDS011;2148;48.554;7.834;2022-08-01T08:05:35;5.80;;;4.17;;
4268;SDS011;2148;48.554;7.834;2022-08-01T08:08:09;4.40;;;3.43;;
4268;SDS011;2148;48.554;7.834;2022-08-01T08:10:35;4.73;;;4.00;;
4268;SDS011;2148;48.554;7.834;2022-08-01T08:13:00;4.00;;;3.70;;
4268;SDS011;2148;48.554;7.834;2022-08-01T08:15:29;4.43;;;3.60;;
4268;SDS011;2148;48.554;7.834;2022-08-01T08:17:54;6.90;;;3.87;;
4268;SDS011;2148;48.554;7.834;2022-08-01T08:20:19;5.03;;;3.80;;
4268;SDS011;2148;48.554;7.834;2022-08-01T08:22:49;4.10;;;3.57;;
4268;SDS011;2148;48.554;7.834;2022-08-01T08:25:15;5.30;;;3.40;;
4268;SDS011;2148;48.554;7.834;2022-08-01T08:27:40;4.03;;;3.43;;
4268;SDS011;2148;48.554;7.834;2022-08-01T08:30:06;5.23;;;3.53;;
4268;SDS011;2148;48.554;7.834;2022-08-01T08:32:36;4.40;;;3.57;;
4268;SDS011;2148;48.554;7.834;2022-08-01T08:35:01;6.90;;;3.67;;
4268;SDS011;2148;48.554;7.834;2022-08-01T08:37:27;5.03;;;3.10;;
4268;SDS011;2148;48.554;7.834;2022-08-01T08:39:52;4.50;;;3.03;;
4268;SDS011;2148;48.554;7.834;2022-08-01T08:42:17;4.30;;;3.30;;
4268;SDS011;2148;48.554;7.834;2022-08-01T08:44:43;4.93;;;3.40;;
4268;SDS011;2148;48.554;7.834;2022-08-01T08:47:08;4.33;;;3.20;;
4268;SDS011;2148;48.554;7.834;2022-08-01T08:49:36;5.73;;;3.43;;
4268;SDS011;2148;48.554;7.834;2022-08-01T08:52:02;4.00;;;3.50;;
4268;SDS011;2148;48.554;7.834;2022-08-01T08:54:29;3.50;;;3.20;;
4268;SDS011;2148;48.554;7.834;2022-08-01T08:56:55;4.43;;;3.10;;
4268;SDS011;2148;48.554;7.834;2022-08-01T08:59:21;3.83;;;3.23;;
4268;SDS011;2148;48.554;7.834;2022-08-01T09:01:49;3.90;;;3.53;;
4268;SDS011;2148;48.554;7.834;2022-08-01T09:04:14;4.87;;;3.20;;
4268;SDS011;2148;48.554;7.834;2022-08-01T09:06:39;4.47;;;3.40;;
4268;SDS011;2148;48.554;7.834;2022-08-01T09:09:05;5.20;;;3.97;;
4268;SDS011;2148;48.554;7.834;2022-08-01T09:11:32;5.13;;;3.70;;
4268;SDS011;2148;48.554;7.834;2022-08-01T09:16:26;5.00;;;3.53;;
4268;SDS011;2148;48.554;7.834;2022-08-01T09:18:51;5.87;;;4.23;;
4268;SDS011;2148;48.554;7.834;2022-08-01T09:21:17;3.90;;;3.50;;
4268;SDS011;2148;48.554;7.834;2022-08-01T09:23:52;4.47;;;4.07;;
4268;SDS011;2148;48.554;7.834;2022-08-01T09:26:20;5.63;;;4.33;;
4268;SDS011;2148;48.554;7.834;2022-08-01T09:28:47;4.83;;;4.10;;
4268;SDS011;2148;48.554;7.834;2022-08-01T09:31:13;4.10;;;3.80;;
4268;SDS011;2148;48.554;7.834;2022-08-01T09:33:48;4.47;;;4.07;;
4268;SDS011;2148;48.554;7.834;2022-08-01T09:36:17;4.13;;;3.47;;
4268;SDS011;2148;48.554;7.834;2022-08-01T09:38:43;4.50;;;4.10;;
4268;SDS011;2148;48.554;7.834;2022-08-01T09:41:08;5.47;;;3.63;;
4268;SDS011;2148;48.554;7.834;2022-08-01T09:43:33;4.23;;;3.80;;
4268;SDS011;2148;48.554;7.834;2022-08-01T09:45:59;6.53;;;3.90;;
4268;SDS011;2148;48.554;7.834;2022-08-01T09:48:27;4.70;;;3.70;;
4268;SDS011;2148;48.554;7.834;2022-08-01T09:50:52;3.93;;;3.53;;
4268;SDS011;2148;48.554;7.834;2022-08-01T09:53:18;4.00;;;3.50;;
4268;SDS011;2148;48.554;7.834;2022-08-01T09:55:43;4.53;;;3.70;;
4268;SDS011;2148;48.554;7.834;2022-08-01T09:58:10;5.38;;;4.38;;
4268;SDS011;2148;48.554;7.834;2022-08-01T10:00:37;4.40;;;4.00;;
4268;SDS011;2148;48.554;7.834;2022-08-01T10:03:22;4.55;;;3.90;;
4268;SDS011;2148;48.554;7.834;2022-08-01T10:05:48;4.20;;;3.70;;
4268;SDS011;2148;48.554;7.834;2022-08-01T10:08:15;4.00;;;3.70;;
4268;SDS011;2148;48.554;7.834;2022-08-01T10:10:40;4.20;;;3.80;;
4268;SDS011;2148;48.554;7.834;2022-08-01T10:13:05;5.20;;;3.67;;
4268;SDS011;2148;48.554;7.834;2022-08-01T10:15:31;4.30;;;3.90;;
4268;SDS011;2148;48.554;7.834;2022-08-01T10:17:57;4.70;;;4.00;;
4268;SDS011;2148;48.554;7.834;2022-08-01T10:20:25;4.50;;;4.10;;
4268;SDS011;2148;48.554;7.834;2022-08-01T10:22:54;4.30;;;3.90;;
4268;SDS011;2148;48.554;7.834;2022-08-01T10:25:21;3.83;;;3.53;;
4268;SDS011;2148;48.554;7.834;2022-08-01T10:27:50;5.05;;;3.60;;
4268;SDS011;2148;48.554;7.834;2022-08-01T10:30:19;5.63;;;3.90;;
4268;SDS011;2148;48.554;7.834;2022-08-01T10:32:45;4.43;;;3.85;;
4268;SDS011;2148;48.554;7.834;2022-08-01T10:35:11;3.92;;;3.53;;
4268;SDS011;2148;48.554;7.834;2022-08-01T10:37:42;6.10;;;4.13;;
4268;SDS011;2148;48.554;7.834;2022-08-01T10:40:08;4.43;;;3.67;;
4268;SDS011;2148;48.554;7.834;2022-08-01T10:42:36;4.07;;;3.65;;
4268;SDS011;2148;48.554;7.834;2022-08-01T10:45:01;4.38;;;3.20;;
4268;SDS011;2148;48.554;7.834;2022-08-01T10:47:29;4.00;;;3.33;;
4268;SDS011;2148;48.554;7.834;2022-08-01T10:50:11;4.13;;;3.20;;
4268;SDS011;2148;48.554;7.834;2022-08-01T10:52:41;4.32;;;3.25;;
4268;SDS011;2148;48.554;7.834;2022-08-01T10:55:07;5.30;;;3.78;;
4268;SDS011;2148;48.554;7.834;2022-08-01T10:57:45;4.38;;;3.75;;
4268;SDS011;2148;48.554;7.834;2022-08-01T11:00:18;4.18;;;3.78;;
4268;SDS011;2148;48.554;7.834;2022-08-01T11:03:01;3.90;;;3.50;;
4268;SDS011;2148;48.554;7.834;2022-08-01T11:05:32;3.85;;;3.45;;
4268;SDS011;2148;48.554;7.834;2022-08-01T11:08:01;3.83;;;3.40;;
4268;SDS011;2148;48.554;7.834;2022-08-01T11:10:39;5.22;;;3.58;;
4268;SDS011;2148;48.554;7.834;2022-08-01T11:13:10;4.30;;;3.70;;
4268;SDS011;2148;48.554;7.834;2022-08-01T11:15:36;4.25;;;3.33;;
4268;SDS011;2148;48.554;7.834;2022-08-01T11:20:58;3.88;;;3.58;;
4268;SDS011;2148;48.554;7.834;2022-08-01T11:23:26;3.80;;;3.50;;
4268;SDS011;2148;48.554;7.834;2022-08-01T11:31:24;4.63;;;3.35;;
4268;SDS011;2148;48.554;7.834;2022-08-01T11:38:35;3.45;;;3.15;;
4268;SDS011;2148;48.554;7.834;2022-08-01T11:43:58;3.03;;;2.80;;
4268;SDS011;2148;48.554;7.834;2022-08-01T11:52:09;4.30;;;3.10;;
4268;SDS011;2148;48.554;7.834;2022-08-01T11:54:41;3.80;;;3.50;;
4268;SDS011;2148;48.554;7.834;2022-08-01T11:57:07;3.67;;;3.10;;
4268;SDS011;2148;48.554;7.834;2022-08-01T11:59:38;3.80;;;3.25;;
4268;SDS011;2148;48.554;7.834;2022-08-01T12:02:14;3.75;;;3.38;;
4268;SDS011;2148;48.554;7.834;2022-08-01T12:04:49;4.73;;;3.43;;
4268;SDS011;2148;48.554;7.834;2022-08-01T12:07:19;3.95;;;3.10;;
4268;SDS011;2148;48.554;7.834;2022-08-01T12:09:44;4.80;;;3.73;;
4268;SDS011;2148;48.554;7.834;2022-08-01T12:12:11;4.00;;;3.20;;
4268;SDS011;2148;48.554;7.834;2022-08-01T12:14:41;3.75;;;3.45;;
4268;SDS011;2148;48.554;7.834;2022-08-01T12:17:07;3.83;;;3.17;;
4268;SDS011;2148;48.554;7.834;2022-08-01T12:19:32;3.38;;;3.08;;
4268;SDS011;2148;48.554;7.834;2022-08-01T12:22:04;3.75;;;3.22;;
4268;SDS011;2148;48.554;7.834;2022-08-01T12:24:33;5.70;;;3.15;;
4268;SDS011;2148;48.554;7.834;2022-08-01T12:26:59;3.10;;;2.90;;
4268;SDS011;2148;48.554;7.834;2022-08-01T12:29:58;4.85;;;3.50;;
4268;SDS011;2148;48.554;7.834;2022-08-01T12:32:27;3.97;;;3.30;;
4268;SDS011;2148;48.554;7.834;2022-08-01T12:34:56;3.58;;;3.28;;
4268;SDS011;2148;48.554;7.834;2022-08-01T12:37:29;3.70;;;3.40;;
4268;SDS011;2148;48.554;7.834;2022-08-01T12:39:54;4.10;;;3.45;;
4268;SDS011;2148;48.554;7.834;2022-08-01T12:42:20;3.92;;;3.20;;
4268;SDS011;2148;48.554;7.834;2022-08-01T12:44:48;4.22;;;3.40;;
4268;SDS011;2148;48.554;7.834;2022-08-01T12:47:16;3.40;;;3.10;;
4268;SDS011;2148;48.554;7.834;2022-08-01T12:49:42;3.22;;;2.97;;
4268;SDS011;2148;48.554;7.834;2022-08-01T12:52:08;3.50;;;3.20;;
4268;SDS011;2148;48.554;7.834;2022-08-01T12:54:59;3.35;;;3.05;;
4268;SDS011;2148;48.554;7.834;2022-08-01T12:57:31;3.33;;;3.03;;
4268;SDS011;2148;48.554;7.834;2022-08-01T13:02:34;3.45;;;3.15;;
4268;SDS011;2148;48.554;7.834;2022-08-01T13:05:00;3.78;;;2.70;;
4268;SDS011;2148;48.554;7.834;2022-08-01T13:07:42;3.13;;;2.20;;
4268;SDS011;2148;48.554;7.834;2022-08-01T13:10:15;3.35;;;2.72;;
4268;SDS011;2148;48.554;7.834;2022-08-01T13:12:50;2.40;;;2.20;;
4268;SDS011;2148;48.554;7.834;2022-08-01T13:15:17;4.32;;;2.40;;
4268;SDS011;2148;48.554;7.834;2022-08-01T13:17:44;2.83;;;2.38;;
4268;SDS011;2148;48.554;7.834;2022-08-01T13:20:09;2.65;;;2.45;;
4268;SDS011;2148;48.554;7.834;2022-08-01T13:22:35;3.15;;;2.63;;
4268;SDS011;2148;48.554;7.834;2022-08-01T13:25:11;3.28;;;2.10;;
4268;SDS011;2148;48.554;7.834;2022-08-01T13:27:39;2.72;;;2.53;;
4268;SDS011;2148;48.554;7.834;2022-08-01T13:30:17;2.58;;;1.90;;
4268;SDS011;2148;48.554;7.834;2022-08-01T13:32:53;3.70;;;2.10;;
4268;SDS011;2148;48.554;7.834;2022-08-01T13:35:22;2.72;;;2.20;;
4268;SDS011;2148;48.554;7.834;2022-08-01T13:37:48;2.58;;;1.90;;
4268;SDS011;2148;48.554;7.834;2022-08-01T13:40:22;2.40;;;2.20;;
4268;SDS011;2148;48.554;7.834;2022-08-01T13:42:48;2.38;;;2.17;;
4268;SDS011;2148;48.554;7.834;2022-08-01T13:45:14;2.45;;;2.25;;
4268;SDS011;2148;48.554;7.834;2022-08-01T13:47:39;2.70;;;2.05;;
4268;SDS011;2148;48.554;7.834;2022-08-01T13:50:04;3.35;;;2.03;;
4268;SDS011;2148;48.554;7.834;2022-08-01T13:52:30;2.40;;;2.20;;
4268;SDS011;2148;48.554;7.834;2022-08-01T13:54:56;3.22;;;2.40;;
4268;SDS011;2148;48.554;7.834;2022-08-01T13:57:21;2.47;;;2.28;;
4268;SDS011;2148;48.554;7.834;2022-08-01T13:59:46;2.45;;;2.10;;
4268;SDS011;2148;48.554;7.834;2022-08-01T14:02:12;2.72;;;2.20;;
4268;SDS011;2148;48.554;7.834;2022-08-01T14:04:37;2.97;;;2.20;;
4268;SDS011;2148;48.554;7.834;2022-08-01T14:07:03;3.15;;;2.20;;
4268;SDS011;2148;48.554;7.834;2022-08-01T14:09:28;2.92;;;2.20;;
4268;SDS011;2148;48.554;7.834;2022-08-01T14:11:54;2.75;;;1.90;;
4268;SDS011;2148;48.554;7.834;2022-08-01T14:14:19;2.97;;;2.10;;
4268;SDS011;2148;48.554;7.834;2022-08-01T14:16:44;4.30;;;2.22;;
4268;SDS011;2148;48.554;7.834;2022-08-01T14:19:10;2.55;;;2.00;;
4268;SDS011;2148;48.554;7.834;2022-08-01T14:21:35;3.88;;;1.80;;
4268;SDS011;2148;48.554;7.834;2022-08-01T14:24:00;2.75;;;2.03;;
4268;SDS011;2148;48.554;7.834;2022-08-01T14:26:26;3.80;;;1.85;;
4268;SDS011;2148;48.554;7.834;2022-08-01T14:28:51;3.17;;;1.50;;
4268;SDS011;2148;48.554;7.834;2022-08-01T14:31:17;4.75;;;3.20;;
4268;SDS011;2148;48.554;7.834;2022-08-01T14:33:42;4.15;;;1.80;;
4268;SDS011;2148;48.554;7.834;2022-08-01T14:36:07;2.08;;;1.65;;
4268;SDS011;2148;48.554;7.834;2022-08-01T14:38:32;2.90;;;1.98;;
4268;SDS011;2148;48.554;7.834;2022-08-01T14:40:58;3.05;;;1.90;;
4268;SDS011;2148;48.554;7.834;2022-08-01T14:43:24;1.98;;;1.77;;
4268;SDS011;2148;48.554;7.834;2022-08-01T14:45:50;2.08;;;1.40;;
4268;SDS011;2148;48.554;7.834;2022-08-01T14:48:17;1.98;;;1.55;;
4268;SDS011;2148;48.554;7.834;2022-08-01T14:50:43;1.88;;;1.40;;
4268;SDS011;2148;48.554;7.834;2022-08-01T14:53:08;1.60;;;1.50;;
4268;SDS011;2148;48.554;7.834;2022-08-01T14:55:33;2.10;;;1.55;;
4268;SDS011;2148;48.554;7.834;2022-08-01T14:57:58;1.98;;;1.60;;
4268;SDS011;2148;48.554;7.834;2022-08-01T15:00:24;2.10;;;1.60;;
4268;SDS011;2148;48.554;7.834;2022-08-01T15:02:49;2.28;;;1.38;;
4268;SDS011;2148;48.554;7.834;2022-08-01T15:05:14;1.60;;;1.40;;
4268;SDS011;2148;48.554;7.834;2022-08-01T15:07:40;3.65;;;1.35;;
4268;SDS011;2148;48.554;7.834;2022-08-01T15:10:05;6.70;;;1.80;;
4268;SDS011;2148;48.554;7.834;2022-08-01T15:12:31;3.92;;;1.50;;
4268;SDS011;2148;48.554;7.834;2022-08-01T15:14:56;1.90;;;1.50;;
4268;SDS011;2148;48.554;7.834;2022-08-01T15:17:23;2.55;;;1.80;;
4268;SDS011;2148;48.554;7.834;2022-08-01T15:19:53;1.98;;;1.40;;
4268;SDS011;2148;48.554;7.834;2022-08-01T15:22:19;1.55;;;1.25;;
4268;SDS011;2148;48.554;7.834;2022-08-01T15:24:46;1.98;;;1.50;;
4268;SDS011;2148;48.554;7.834;2022-08-01T15:27:12;1.52;;;1.20;;
4268;SDS011;2148;48.554;7.834;2022-08-01T15:29:37;3.22;;;1.52;;
4268;SDS011;2148;48.554;7.834;2022-08-01T15:32:03;2.78;;;1.48;;
4268;SDS011;2148;48.554;7.834;2022-08-01T15:34:30;2.53;;;1.40;;
4268;SDS011;2148;48.554;7.834;2022-08-01T15:36:56;1.77;;;1.40;;
4268;SDS011;2148;48.554;7.834;2022-08-01T15:39:21;2.45;;;1.45;;
4268;SDS011;2148;48.554;7.834;2022-08-01T15:41:47;2.45;;;1.65;;
4268;SDS011;2148;48.554;7.834;2022-08-01T15:44:12;2.22;;;1.50;;
4268;SDS011;2148;48.554;7.834;2022-08-01T15:46:37;2.63;;;1.40;;